sensor_id;sensor_type;location;lat;lon;timestamp;pressure;altitude;pressure_sealevel;temperature
20730;BMP280;10526;50.850;12.928;2022-10-16T00:03:21;97694.50;;;15.30
20730;BMP280;10526;50.850;12.928;2022-10-16T00:07:50;97700.72;;;15.27
20730;BMP280;10526;50.850;12.928;2022-10-16T00:12:12;97698.03;;;15.27
20730;BMP280;10526;50.850;12.928;2022-10-16T00:16:35;97710.72;;;15.26
20730;BMP280;10526;50.850;12.928;2022-10-16T00:21:10;97710.53;;;15.20
20730;BMP280;10526;50.850;12.928;2022-10-16T00:25:33;97725.66;;;15.14
20730;BMP280;10526;50.850;12.928;2022-10-16T00:29:56;97732.19;;;15.13
20730;BMP280;10526;50.850;12.928;2022-10-16T00:34:19;97734.66;;;15.20
20730;BMP280;10526;50.850;12.928;2022-10-16T00:38:43;97740.56;;;15.28
20730;BMP280;10526;50.850;12.928;2022-10-16T00:48:00;97751.69;;;15.39
20730;BMP280;10526;50.850;12.928;2022-10-16T00:52:22;97744.28;;;15.43
20730;BMP280;10526;50.850;12.928;2022-10-16T00:56:46;97754.44;;;15.48
20730;BMP280;10526;50.850;12.928;2022-10-16T01:01:09;97750.88;;;15.51
20730;BMP280;10526;50.850;12.928;2022-10-16T01:05:50;97751.53;;;15.56
20730;BMP280;10526;50.850;12.928;2022-10-16T01:10:51;97745.81;;;15.66
20730;BMP280;10526;50.850;12.928;2022-10-16T01:15:46;97750.63;;;15.71
20730;BMP280;10526;50.850;12.928;2022-10-16T01:20:28;97756.31;;;15.73
20730;BMP280;10526;50.850;12.928;2022-10-16T01:24:52;97743.94;;;15.76
20730;BMP280;10526;50.850;12.928;2022-10-16T01:29:41;97743.06;;;15.79
20730;BMP280;10526;50.850;12.928;2022-10-16T01:34:29;97746.38;;;15.83
20730;BMP280;10526;50.850;12.928;2022-10-16T01:38:56;97750.13;;;15.86
20730;BMP280;10526;50.850;12.928;2022-10-16T01:43:30;97750.13;;;15.86
20730;BMP280;10526;50.850;12.928;2022-10-16T01:47:54;97739.38;;;15.86
20730;BMP280;10526;50.850;12.928;2022-10-16T01:52:21;97730.63;;;15.72
20730;BMP280;10526;50.850;12.928;2022-10-16T01:56:47;97743.78;;;15.58
20730;BMP280;10526;50.850;12.928;2022-10-16T02:01:12;97753.91;;;15.41
20730;BMP280;10526;50.850;12.928;2022-10-16T02:05:55;97748.41;;;15.22
20730;BMP280;10526;50.850;12.928;2022-10-16T02:10:19;97749.69;;;15.05
20730;BMP280;10526;50.850;12.928;2022-10-16T02:14:42;97759.16;;;14.97
20730;BMP280;10526;50.850;12.928;2022-10-16T02:19:06;97753.44;;;14.95
20730;BMP280;10526;50.850;12.928;2022-10-16T02:28:17;97756.56;;;15.06
20730;BMP280;10526;50.850;12.928;2022-10-16T02:32:44;97763.94;;;15.15
20730;BMP280;10526;50.850;12.928;2022-10-16T02:37:08;97754.94;;;15.21
20730;BMP280;10526;50.850;12.928;2022-10-16T02:41:31;97749.13;;;15.23
20730;BMP280;10526;50.850;12.928;2022-10-16T02:45:53;97748.28;;;15.26
20730;BMP280;10526;50.850;12.928;2022-10-16T02:50:16;97749.88;;;15.23
20730;BMP280;10526;50.850;12.928;2022-10-16T02:54:38;97758.38;;;15.22
20730;BMP280;10526;50.850;12.928;2022-10-16T02:59:01;97772.84;;;15.25
20730;BMP280;10526;50.850;12.928;2022-10-16T03:03:24;97773.03;;;15.30
20730;BMP280;10526;50.850;12.928;2022-10-16T03:07:46;97771.66;;;15.26
20730;BMP280;10526;50.850;12.928;2022-10-16T03:12:09;97768.56;;;15.14
20730;BMP280;10526;50.850;12.928;2022-10-16T03:16:34;97768.16;;;15.03
20730;BMP280;10526;50.850;12.928;2022-10-16T03:20:56;97768.34;;;14.96
20730;BMP280;10526;50.850;12.928;2022-10-16T03:25:18;97767.72;;;14.92
20730;BMP280;10526;50.850;12.928;2022-10-16T03:29:41;97752.50;;;14.89
20730;BMP280;10526;50.850;12.928;2022-10-16T03:34:04;97755.19;;;14.89
20730;BMP280;10526;50.850;12.928;2022-10-16T03:38:26;97765.47;;;14.90
20730;BMP280;10526;50.850;12.928;2022-10-16T03:42:48;97780.47;;;14.88
20730;BMP280;10526;50.850;12.928;2022-10-16T03:47:11;97791.66;;;14.86
20730;BMP280;10526;50.850;12.928;2022-10-16T03:51:33;97786.06;;;14.81
20730;BMP280;10526;50.850;12.928;2022-10-16T03:55:55;97788.75;;;14.81
20730;BMP280;10526;50.850;12.928;2022-10-16T04:00:18;97795.16;;;14.83
20730;BMP280;10526;50.850;12.928;2022-10-16T04:04:41;97788.63;;;14.84
20730;BMP280;10526;50.850;12.928;2022-10-16T04:09:03;97792.09;;;14.85
20730;BMP280;10526;50.850;12.928;2022-10-16T04:13:25;97786.06;;;14.81
20730;BMP280;10526;50.850;12.928;2022-10-16T04:17:48;97791.97;;;14.76
20730;BMP280;10526;50.850;12.928;2022-10-16T04:22:10;97800.53;;;14.71
20730;BMP280;10526;50.850;12.928;2022-10-16T04:26:33;97802.88;;;14.69
20730;BMP280;10526;50.850;12.928;2022-10-16T04:30:56;97794.53;;;14.67
20730;BMP280;10526;50.850;12.928;2022-10-16T04:35:19;97805.88;;;14.71
20730;BMP280;10526;50.850;12.928;2022-10-16T04:39:42;97803.63;;;14.69
20730;BMP280;10526;50.850;12.928;2022-10-16T04:44:04;97797.41;;;14.72
20730;BMP280;10526;50.850;12.928;2022-10-16T04:48:27;97806.34;;;14.82
20730;BMP280;10526;50.850;12.928;2022-10-16T04:52:50;97806.56;;;14.87
20730;BMP280;10526;50.850;12.928;2022-10-16T04:57:12;97819.53;;;14.89
20730;BMP280;10526;50.850;12.928;2022-10-16T05:01:35;97815.22;;;14.91
20730;BMP280;10526;50.850;12.928;2022-10-16T05:05:57;97811.25;;;14.96
20730;BMP280;10526;50.850;12.928;2022-10-16T05:10:20;97811.50;;;15.02
20730;BMP280;10526;50.850;12.928;2022-10-16T05:14:42;97822.22;;;15.02
20730;BMP280;10526;50.850;12.928;2022-10-16T05:19:05;97829.72;;;14.94
20730;BMP280;10526;50.850;12.928;2022-10-16T05:23:47;97835.72;;;14.85
20730;BMP280;10526;50.850;12.928;2022-10-16T05:28:10;97843.13;;;14.81
20730;BMP280;10526;50.850;12.928;2022-10-16T05:32:32;97853.31;;;14.86
20730;BMP280;10526;50.850;12.928;2022-10-16T05:36:54;97859.75;;;15.02
20730;BMP280;10526;50.850;12.928;2022-10-16T05:41:17;97873.53;;;15.16
20730;BMP280;10526;50.850;12.928;2022-10-16T05:45:43;97865.91;;;15.28
20730;BMP280;10526;50.850;12.928;2022-10-16T05:50:07;97872.56;;;15.36
20730;BMP280;10526;50.850;12.928;2022-10-16T05:54:29;97865.66;;;15.47
20730;BMP280;10526;50.850;12.928;2022-10-16T05:58:52;97882.09;;;15.62
20730;BMP280;10526;50.850;12.928;2022-10-16T06:03:14;97878.75;;;15.71
20730;BMP280;10526;50.850;12.928;2022-10-16T06:07:36;97872.69;;;15.79
20730;BMP280;10526;50.850;12.928;2022-10-16T06:11:59;97880.31;;;15.94
20730;BMP280;10526;50.850;12.928;2022-10-16T06:16:22;97879.22;;;16.04
20730;BMP280;10526;50.850;12.928;2022-10-16T06:20:44;97892.72;;;16.13
20730;BMP280;10526;50.850;12.928;2022-10-16T06:25:07;97911.56;;;16.22
20730;BMP280;10526;50.850;12.928;2022-10-16T06:29:29;97908.03;;;16.25
20730;BMP280;10526;50.850;12.928;2022-10-16T06:33:52;97909.28;;;16.33
20730;BMP280;10526;50.850;12.928;2022-10-16T06:38:15;97913.69;;;16.40
20730;BMP280;10526;50.850;12.928;2022-10-16T06:42:37;97924.81;;;16.51
20730;BMP280;10526;50.850;12.928;2022-10-16T06:46:59;97934.63;;;16.67
20730;BMP280;10526;50.850;12.928;2022-10-16T06:51:24;97922.03;;;16.86
20730;BMP280;10526;50.850;12.928;2022-10-16T06:55:47;97934.69;;;16.98
20730;BMP280;10526;50.850;12.928;2022-10-16T07:00:10;97954.72;;;17.37
20730;BMP280;10526;50.850;12.928;2022-10-16T07:04:33;97957.72;;;19.31
20730;BMP280;10526;50.850;12.928;2022-10-16T07:08:55;97969.97;;;20.37
20730;BMP280;10526;50.850;12.928;2022-10-16T07:13:17;97967.28;;;20.37
20730;BMP280;10526;50.850;12.928;2022-10-16T07:17:39;97975.63;;;20.10
20730;BMP280;10526;50.850;12.928;2022-10-16T07:22:02;97973.28;;;19.93
20730;BMP280;10526;50.850;12.928;2022-10-16T07:26:26;97982.81;;;19.65
20730;BMP280;10526;50.850;12.928;2022-10-16T07:30:48;97985.06;;;19.90
20730;BMP280;10526;50.850;12.928;2022-10-16T07:35:11;97982.28;;;20.97
20730;BMP280;10526;50.850;12.928;2022-10-16T07:39:34;97989.28;;;22.14
20730;BMP280;10526;50.850;12.928;2022-10-16T07:43:56;97994.06;;;21.79
20730;BMP280;10526;50.850;12.928;2022-10-16T07:48:23;97977.03;;;21.23
20730;BMP280;10526;50.850;12.928;2022-10-16T07:52:45;97999.69;;;20.76
20730;BMP280;10526;50.850;12.928;2022-10-16T07:57:08;97989.09;;;20.48
20730;BMP280;10526;50.850;12.928;2022-10-16T08:01:30;97988.97;;;20.28
20730;BMP280;10526;50.850;12.928;2022-10-16T08:05:53;97996.50;;;20.24
20730;BMP280;10526;50.850;12.928;2022-10-16T08:10:19;97999.66;;;20.46
20730;BMP280;10526;50.850;12.928;2022-10-16T08:14:41;98012.09;;;21.47
20730;BMP280;10526;50.850;12.928;2022-10-16T08:19:07;97998.41;;;21.91
20730;BMP280;10526;50.850;12.928;2022-10-16T08:23:30;98004.13;;;21.58
20730;BMP280;10526;50.850;12.928;2022-10-16T08:27:52;98009.25;;;21.36
20730;BMP280;10526;50.850;12.928;2022-10-16T08:32:15;98000.44;;;21.41
20730;BMP280;10526;50.850;12.928;2022-10-16T08:36:38;98001.84;;;21.51
20730;BMP280;10526;50.850;12.928;2022-10-16T08:45:43;98005.31;;;22.38
20730;BMP280;10526;50.850;12.928;2022-10-16T08:50:12;98012.09;;;22.48
20730;BMP280;10526;50.850;12.928;2022-10-16T08:54:39;98016.66;;;22.37
20730;BMP280;10526;50.850;12.928;2022-10-16T08:59:04;98022.44;;;22.24
20730;BMP280;10526;50.850;12.928;2022-10-16T09:18:56;98046.88;;;21.83
20730;BMP280;10526;50.850;12.928;2022-10-16T09:27:26;98054.47;;;21.79
20730;BMP280;10526;50.850;12.928;2022-10-16T09:31:49;98052.31;;;21.83
20730;BMP280;10526;50.850;12.928;2022-10-16T09:36:13;98057.53;;;21.72
20730;BMP280;10526;50.850;12.928;2022-10-16T09:40:38;98056.84;;;21.57
20730;BMP280;10526;50.850;12.928;2022-10-16T09:45:02;98066.19;;;21.56
20730;BMP280;10526;50.850;12.928;2022-10-16T09:49:26;98065.19;;;21.74
20730;BMP280;10526;50.850;12.928;2022-10-16T09:53:53;98070.19;;;21.95
20730;BMP280;10526;50.850;12.928;2022-10-16T09:58:16;98084.44;;;22.11
20730;BMP280;10526;50.850;12.928;2022-10-16T10:02:39;98087.03;;;21.85
20730;BMP280;10526;50.850;12.928;2022-10-16T10:07:01;98097.97;;;21.70
20730;BMP280;10526;50.850;12.928;2022-10-16T10:11:49;98088.31;;;21.69
20730;BMP280;10526;50.850;12.928;2022-10-16T10:16:12;98089.66;;;21.94
20730;BMP280;10526;50.850;12.928;2022-10-16T10:20:45;98101.41;;;22.06
20730;BMP280;10526;50.850;12.928;2022-10-16T10:25:28;98105.75;;;22.18
20730;BMP280;10526;50.850;12.928;2022-10-16T10:35:18;98103.06;;;22.64
20730;BMP280;10526;50.850;12.928;2022-10-16T10:40:02;98101.63;;;22.69
20730;BMP280;10526;50.850;12.928;2022-10-16T10:44:56;98107.81;;;22.95
20730;BMP280;10526;50.850;12.928;2022-10-16T11:04:34;98112.63;;;23.11
20730;BMP280;10526;50.850;12.928;2022-10-16T11:09:20;98099.66;;;23.21
20730;BMP280;10526;50.850;12.928;2022-10-16T11:18:52;98108.97;;;23.46
20730;BMP280;10526;50.850;12.928;2022-10-16T11:27:58;98104.38;;;23.63
20730;BMP280;10526;50.850;12.928;2022-10-16T11:37:40;98114.47;;;24.00
20730;BMP280;10526;50.850;12.928;2022-10-16T11:42:11;98124.88;;;24.66
20730;BMP280;10526;50.850;12.928;2022-10-16T11:46:38;98126.91;;;25.10
20730;BMP280;10526;50.850;12.928;2022-10-16T11:52:16;98123.03;;;24.35
20730;BMP280;10526;50.850;12.928;2022-10-16T11:56:41;98132.44;;;24.40
20730;BMP280;10526;50.850;12.928;2022-10-16T12:10:45;98127.06;;;24.68
20730;BMP280;10526;50.850;12.928;2022-10-16T12:15:32;98125.78;;;24.46
20730;BMP280;10526;50.850;12.928;2022-10-16T12:24:43;98132.56;;;24.90
20730;BMP280;10526;50.850;12.928;2022-10-16T12:29:44;98144.44;;;24.76
20730;BMP280;10526;50.850;12.928;2022-10-16T12:34:48;98132.25;;;24.54
20730;BMP280;10526;50.850;12.928;2022-10-16T12:39:03;98151.81;;;24.53
20730;BMP280;10526;50.850;12.928;2022-10-16T12:43:46;98150.84;;;24.62
20730;BMP280;10526;50.850;12.928;2022-10-16T12:48:21;98150.25;;;24.35
20730;BMP280;10526;50.850;12.928;2022-10-16T12:52:59;98164.28;;;24.17
20730;BMP280;10526;50.850;12.928;2022-10-16T12:57:41;98175.25;;;24.34
20730;BMP280;10526;50.850;12.928;2022-10-16T13:02:36;98173.81;;;24.44
20730;BMP280;10526;50.850;12.928;2022-10-16T13:07:47;98153.66;;;24.19
20730;BMP280;10526;50.850;12.928;2022-10-16T13:17:55;98156.09;;;23.69
20730;BMP280;10526;50.850;12.928;2022-10-16T13:22:33;98168.31;;;23.47
20730;BMP280;10526;50.850;12.928;2022-10-16T13:32:15;98180.09;;;23.39
20730;BMP280;10526;50.850;12.928;2022-10-16T13:36:50;98173.75;;;23.21
20730;BMP280;10526;50.850;12.928;2022-10-16T13:41:18;98178.56;;;23.06
20730;BMP280;10526;50.850;12.928;2022-10-16T13:45:40;98180.41;;;22.94
20730;BMP280;10526;50.850;12.928;2022-10-16T13:50:09;98186.88;;;22.77
20730;BMP280;10526;50.850;12.928;2022-10-16T13:54:33;98177.13;;;22.65
20730;BMP280;10526;50.850;12.928;2022-10-16T13:59:24;98179.28;;;22.40
20730;BMP280;10526;50.850;12.928;2022-10-16T14:03:48;98182.53;;;22.24
20730;BMP280;10526;50.850;12.928;2022-10-16T14:08:14;98177.50;;;22.17
20730;BMP280;10526;50.850;12.928;2022-10-16T14:12:36;98180.50;;;22.19
20730;BMP280;10526;50.850;12.928;2022-10-16T14:16:59;98194.88;;;22.25
20730;BMP280;10526;50.850;12.928;2022-10-16T14:21:22;98175.88;;;22.25
20730;BMP280;10526;50.850;12.928;2022-10-16T14:25:46;98195.84;;;22.22
20730;BMP280;10526;50.850;12.928;2022-10-16T14:30:17;98201.84;;;21.96
20730;BMP280;10526;50.850;12.928;2022-10-16T14:34:40;98201.53;;;21.74
20730;BMP280;10526;50.850;12.928;2022-10-16T14:39:06;98203.88;;;21.52
20730;BMP280;10526;50.850;12.928;2022-10-16T14:43:42;98215.72;;;21.40
20730;BMP280;10526;50.850;12.928;2022-10-16T14:48:17;98217.41;;;21.22
20730;BMP280;10526;50.850;12.928;2022-10-16T14:52:44;98220.38;;;21.10
20730;BMP280;10526;50.850;12.928;2022-10-16T14:57:25;98231.59;;;20.93
20730;BMP280;10526;50.850;12.928;2022-10-16T15:01:49;98238.56;;;20.85
20730;BMP280;10526;50.850;12.928;2022-10-16T15:06:16;98228.56;;;20.77
20730;BMP280;10526;50.850;12.928;2022-10-16T15:10:43;98237.16;;;20.66
20730;BMP280;10526;50.850;12.928;2022-10-16T15:15:39;98246.16;;;20.48
20730;BMP280;10526;50.850;12.928;2022-10-16T15:20:02;98244.06;;;20.43
20730;BMP280;10526;50.850;12.928;2022-10-16T15:24:26;98239.75;;;20.27
20730;BMP280;10526;50.850;12.928;2022-10-16T15:28:48;98249.00;;;20.12
20730;BMP280;10526;50.850;12.928;2022-10-16T15:33:20;98240.19;;;19.93
20730;BMP280;10526;50.850;12.928;2022-10-16T15:37:43;98245.19;;;19.76
20730;BMP280;10526;50.850;12.928;2022-10-16T15:42:05;98248.22;;;19.60
20730;BMP280;10526;50.850;12.928;2022-10-16T15:46:28;98251.22;;;19.43
20730;BMP280;10526;50.850;12.928;2022-10-16T15:50:52;98257.81;;;19.24
20730;BMP280;10526;50.850;12.928;2022-10-16T15:55:15;98265.88;;;19.06
20730;BMP280;10526;50.850;12.928;2022-10-16T15:59:40;98266.00;;;18.84
20730;BMP280;10526;50.850;12.928;2022-10-16T16:04:02;98266.66;;;18.66
20730;BMP280;10526;50.850;12.928;2022-10-16T16:08:37;98264.47;;;18.43
20730;BMP280;10526;50.850;12.928;2022-10-16T16:13:00;98275.31;;;18.21
20730;BMP280;10526;50.850;12.928;2022-10-16T16:17:22;98285.66;;;18.01
20730;BMP280;10526;50.850;12.928;2022-10-16T16:21:47;98291.06;;;17.79
20730;BMP280;10526;50.850;12.928;2022-10-16T16:26:21;98290.16;;;17.60
20730;BMP280;10526;50.850;12.928;2022-10-16T16:30:51;98305.09;;;17.39
20730;BMP280;10526;50.850;12.928;2022-10-16T16:35:14;98306.94;;;17.17
20730;BMP280;10526;50.850;12.928;2022-10-16T16:39:36;98316.34;;;16.99
20730;BMP280;10526;50.850;12.928;2022-10-16T16:44:06;98331.69;;;16.86
20730;BMP280;10526;50.850;12.928;2022-10-16T16:48:30;98339.31;;;16.75
20730;BMP280;10526;50.850;12.928;2022-10-16T16:52:53;98354.34;;;16.60
20730;BMP280;10526;50.850;12.928;2022-10-16T16:57:16;98363.81;;;16.52
20730;BMP280;10526;50.850;12.928;2022-10-16T17:01:38;98370.03;;;16.49
20730;BMP280;10526;50.850;12.928;2022-10-16T17:06:07;98373.06;;;16.51
20730;BMP280;10526;50.850;12.928;2022-10-16T17:10:30;98375.88;;;16.60
20730;BMP280;10526;50.850;12.928;2022-10-16T17:14:52;98379.22;;;16.64
20730;BMP280;10526;50.850;12.928;2022-10-16T17:19:18;98387.84;;;16.59
20730;BMP280;10526;50.850;12.928;2022-10-16T17:23:41;98400.72;;;16.51
20730;BMP280;10526;50.850;12.928;2022-10-16T17:28:05;98404.84;;;16.39
20730;BMP280;10526;50.850;12.928;2022-10-16T17:32:28;98398.94;;;16.32
20730;BMP280;10526;50.850;12.928;2022-10-16T17:36:51;98401.03;;;16.24
20730;BMP280;10526;50.850;12.928;2022-10-16T17:41:23;98404.00;;;16.14
20730;BMP280;10526;50.850;12.928;2022-10-16T17:45:46;98411.47;;;16.06
20730;BMP280;10526;50.850;12.928;2022-10-16T17:50:09;98427.84;;;15.95
20730;BMP280;10526;50.850;12.928;2022-10-16T17:54:36;98422.41;;;15.82
20730;BMP280;10526;50.850;12.928;2022-10-16T18:04:31;98417.84;;;15.63
20730;BMP280;10526;50.850;12.928;2022-10-16T18:08:56;98427.78;;;15.50
20730;BMP280;10526;50.850;12.928;2022-10-16T18:13:19;98428.59;;;15.47
20730;BMP280;10526;50.850;12.928;2022-10-16T18:17:42;98431.88;;;15.55
20730;BMP280;10526;50.850;12.928;2022-10-16T18:22:05;98445.88;;;15.62
20730;BMP280;10526;50.850;12.928;2022-10-16T18:26:28;98438.06;;;15.68
20730;BMP280;10526;50.850;12.928;2022-10-16T18:31:15;98438.69;;;15.75
20730;BMP280;10526;50.850;12.928;2022-10-16T18:35:38;98439.03;;;15.77
20730;BMP280;10526;50.850;12.928;2022-10-16T18:40:03;98438.53;;;15.82
20730;BMP280;10526;50.850;12.928;2022-10-16T18:44:26;98430.81;;;15.85
20730;BMP280;10526;50.850;12.928;2022-10-16T18:48:49;98443.06;;;15.86
20730;BMP280;10526;50.850;12.928;2022-10-16T18:53:13;98444.91;;;15.89
20730;BMP280;10526;50.850;12.928;2022-10-16T18:57:36;98446.72;;;15.92
20730;BMP280;10526;50.850;12.928;2022-10-16T19:01:59;98448.28;;;15.93
20730;BMP280;10526;50.850;12.928;2022-10-16T19:06:23;98447.09;;;15.94
20730;BMP280;10526;50.850;12.928;2022-10-16T19:10:46;98450.53;;;15.94
20730;BMP280;10526;50.850;12.928;2022-10-16T19:15:09;98462.38;;;15.97
20730;BMP280;10526;50.850;12.928;2022-10-16T19:19:31;98467.69;;;16.00
20730;BMP280;10526;50.850;12.928;2022-10-16T19:23:59;98463.34;;;16.03
20730;BMP280;10526;50.850;12.928;2022-10-16T19:28:22;98459.25;;;15.98
20730;BMP280;10526;50.850;12.928;2022-10-16T19:32:46;98456.25;;;15.96
20730;BMP280;10526;50.850;12.928;2022-10-16T19:37:10;98468.88;;;15.96
20730;BMP280;10526;50.850;12.928;2022-10-16T19:41:35;98480.50;;;15.93
20730;BMP280;10526;50.850;12.928;2022-10-16T19:46:06;98478.63;;;15.90
20730;BMP280;10526;50.850;12.928;2022-10-16T19:50:29;98480.75;;;15.82
20730;BMP280;10526;50.850;12.928;2022-10-16T19:54:54;98478.63;;;15.73
20730;BMP280;10526;50.850;12.928;2022-10-16T19:59:18;98485.69;;;15.67
20730;BMP280;10526;50.850;12.928;2022-10-16T20:03:46;98467.03;;;15.60
20730;BMP280;10526;50.850;12.928;2022-10-16T20:08:09;98479.09;;;15.52
20730;BMP280;10526;50.850;12.928;2022-10-16T20:12:31;98480.06;;;15.42
20730;BMP280;10526;50.850;12.928;2022-10-16T20:16:55;98481.88;;;15.29
20730;BMP280;10526;50.850;12.928;2022-10-16T20:21:26;98486.84;;;15.10
20730;BMP280;10526;50.850;12.928;2022-10-16T20:25:51;98494.09;;;14.93
20730;BMP280;10526;50.850;12.928;2022-10-16T20:30:14;98505.13;;;14.76
20730;BMP280;10526;50.850;12.928;2022-10-16T20:34:36;98513.88;;;14.56
20730;BMP280;10526;50.850;12.928;2022-10-16T20:39:06;98518.41;;;14.36
20730;BMP280;10526;50.850;12.928;2022-10-16T20:43:30;98521.31;;;14.22
20730;BMP280;10526;50.850;12.928;2022-10-16T20:47:52;98528.03;;;14.06
20730;BMP280;10526;50.850;12.928;2022-10-16T20:52:15;98535.47;;;13.95
20730;BMP280;10526;50.850;12.928;2022-10-16T20:56:37;98521.03;;;13.89
20730;BMP280;10526;50.850;12.928;2022-10-16T21:01:10;98526.25;;;13.96
20730;BMP280;10526;50.850;12.928;2022-10-16T21:05:32;98528.94;;;13.96
20730;BMP280;10526;50.850;12.928;2022-10-16T21:10:11;98538.94;;;13.92
20730;BMP280;10526;50.850;12.928;2022-10-16T21:14:34;98529.75;;;13.93
20730;BMP280;10526;50.850;12.928;2022-10-16T21:19:03;98534.75;;;13.91
20730;BMP280;10526;50.850;12.928;2022-10-16T21:23:26;98531.75;;;13.89
20730;BMP280;10526;50.850;12.928;2022-10-16T21:27:48;98540.06;;;13.95
20730;BMP280;10526;50.850;12.928;2022-10-16T21:32:12;98538.47;;;14.01
20730;BMP280;10526;50.850;12.928;2022-10-16T21:36:37;98551.38;;;14.06
20730;BMP280;10526;50.850;12.928;2022-10-16T21:40:59;98543.69;;;14.08
20730;BMP280;10526;50.850;12.928;2022-10-16T21:45:22;98550.16;;;14.11
20730;BMP280;10526;50.850;12.928;2022-10-16T21:49:45;98565.44;;;14.14
20730;BMP280;10526;50.850;12.928;2022-10-16T21:54:14;98563.56;;;14.11
20730;BMP280;10526;50.850;12.928;2022-10-16T21:58:37;98565.63;;;13.99
20730;BMP280;10526;50.850;12.928;2022-10-16T22:02:59;98576.09;;;13.90
20730;BMP280;10526;50.850;12.928;2022-10-16T22:07:22;98559.44;;;13.75
20730;BMP280;10526;50.850;12.928;2022-10-16T22:11:45;98559.56;;;13.65
20730;BMP280;10526;50.850;12.928;2022-10-16T22:16:08;98566.94;;;13.54
20730;BMP280;10526;50.850;12.928;2022-10-16T22:20:31;98567.47;;;13.41
20730;BMP280;10526;50.850;12.928;2022-10-16T22:24:53;98559.56;;;13.31
20730;BMP280;10526;50.850;12.928;2022-10-16T22:29:16;98564.59;;;13.25
20730;BMP280;10526;50.850;12.928;2022-10-16T22:33:41;98565.41;;;13.18
20730;BMP280;10526;50.850;12.928;2022-10-16T22:38:05;98559.38;;;13.11
20730;BMP280;10526;50.850;12.928;2022-10-16T22:42:27;98565.50;;;13.08
20730;BMP280;10526;50.850;12.928;2022-10-16T22:46:50;98563.28;;;13.03
20730;BMP280;10526;50.850;12.928;2022-10-16T22:51:13;98565.63;;;12.97
20730;BMP280;10526;50.850;12.928;2022-10-16T22:55:38;98548.50;;;12.91
20730;BMP280;10526;50.850;12.928;2022-10-16T23:00:00;98558.84;;;12.85
20730;BMP280;10526;50.850;12.928;2022-10-16T23:04:23;98559.19;;;12.87
20730;BMP280;10526;50.850;12.928;2022-10-16T23:08:51;98562.66;;;12.84
20730;BMP280;10526;50.850;12.928;2022-10-16T23:13:15;98564.69;;;12.73
20730;BMP280;10526;50.850;12.928;2022-10-16T23:17:37;98574.28;;;12.63
20730;BMP280;10526;50.850;12.928;2022-10-16T23:22:00;98572.44;;;12.57
20730;BMP280;10526;50.850;12.928;2022-10-16T23:26:25;98578.22;;;12.52
20730;BMP280;10526;50.850;12.928;2022-10-16T23:30:47;98561.41;;;12.48
20730;BMP280;10526;50.850;12.928;2022-10-16T23:35:10;98566.81;;;12.44
20730;BMP280;10526;50.850;12.928;2022-10-16T23:39:32;98560.72;;;12.40
20730;BMP280;10526;50.850;12.928;2022-10-16T23:43:55;98554.19;;;12.45
20730;BMP280;10526;50.850;12.928;2022-10-16T23:48:17;98554.19;;;12.45
20730;BMP280;10526;50.850;12.928;2022-10-16T23:52:40;98554.25;;;12.38
20730;BMP280;10526;50.850;12.928;2022-10-16T23:57:02;98555.44;;;12.29
